Time;durP1;ratioP1;P1;durP2;ratioP2;P2;SDS_P1;SDS_P2;PMS_P1;PMS_P2;Temp;Humidity;BMP_temperature;BMP_pressure;BME280_temperature;BME280_humidity;BME280_pressure;Samples;Min_cycle;Max_cycle;Signal;HPM_P1;HPM_P2
2022/07/24 00:01:39;;;;;;;6.53;4.40;;;24.90;86.40;;;;;;5026748;28;20052;-84
2022/07/24 00:04:05;;;;;;;8.20;4.70;;;24.90;87.30;;;;;;5047365;28;20033;-85
2022/07/24 00:06:31;;;;;;;6.88;5.07;;;24.90;86.90;;;;;;5029831;28;20040;-81
2022/07/24 00:08:57;;;;;;;9.15;5.13;;;24.80;87.10;;;;;;5035365;28;20053;-84
2022/07/24 00:11:23;;;;;;;7.10;5.18;;;24.80;87.20;;;;;;5056353;28;20081;-84
2022/07/24 00:13:49;;;;;;;6.75;4.40;;;24.80;87.50;;;;;;5050000;28;20037;-84
2022/07/24 00:16:15;;;;;;;6.85;5.13;;;24.80;87.80;;;;;;5032897;28;20053;-85
2022/07/24 00:18:41;;;;;;;9.48;5.13;;;24.80;87.90;;;;;;5050405;28;20030;-84
2022/07/24 00:21:07;;;;;;;7.78;4.90;;;24.80;88.30;;;;;;5048019;28;20037;-84
2022/07/24 00:23:33;;;;;;;8.88;5.45;;;24.80;88.70;;;;;;5033856;28;20040;-82
2022/07/24 00:26:00;;;;;;;9.52;5.28;;;24.70;89.00;;;;;;5051646;28;20026;-84
2022/07/24 00:28:26;;;;;;;7.65;5.18;;;24.70;89.30;;;;;;5051232;28;20029;-84
2022/07/24 00:30:52;;;;;;;7.15;4.88;;;24.60;89.60;;;;;;5050322;28;20026;-83
2022/07/24 00:33:17;;;;;;;7.80;5.22;;;24.60;89.90;;;;;;5044384;28;20018;-83
2022/07/24 00:35:43;;;;;;;7.65;5.22;;;24.60;90.00;;;;;;5050166;28;20036;-83
2022/07/24 00:38:09;;;;;;;7.35;5.10;;;24.60;90.30;;;;;;5049353;28;20029;-83
2022/07/24 00:40:35;;;;;;;6.82;5.18;;;24.50;90.70;;;;;;5053849;28;20017;-85
2022/07/24 00:43:02;;;;;;;6.70;5.53;;;24.40;91.00;;;;;;5051601;28;20083;-84
2022/07/24 00:45:28;;;;;;;9.75;5.35;;;24.40;91.40;;;;;;5042589;28;20029;-83
2022/07/24 00:47:54;;;;;;;7.63;5.72;;;24.40;91.60;;;;;;5023943;28;20037;-83
2022/07/24 00:50:20;;;;;;;9.73;6.05;;;24.40;91.90;;;;;;5040219;28;20548;-83
2022/07/24 00:52:46;;;;;;;9.63;5.15;;;24.30;92.00;;;;;;5038890;28;20079;-82
2022/07/24 00:55:12;;;;;;;8.82;6.18;;;24.30;92.20;;;;;;5039186;28;20060;-83
2022/07/24 00:57:38;;;;;;;7.47;5.65;;;24.20;92.30;;;;;;5054413;28;20021;-86
2022/07/24 01:00:06;;;;;;;6.95;5.15;;;24.30;92.40;;;;;;5057772;28;20025;-86
2022/07/24 01:02:32;;;;;;;9.23;5.60;;;24.30;92.50;;;;;;5025411;28;20072;-84
2022/07/24 01:04:58;;;;;;;11.88;5.90;;;24.20;92.70;;;;;;5038361;28;20151;-84
2022/07/24 01:07:24;;;;;;;6.78;5.75;;;24.20;92.80;;;;;;5038680;28;20041;-83
2022/07/24 01:09:51;;;;;;;7.05;5.57;;;24.20;93.00;;;;;;5042528;28;20021;-81
2022/07/24 01:12:17;;;;;;;9.57;4.90;;;24.10;93.20;;;;;;5043605;28;20029;-84
2022/07/24 01:14:43;;;;;;;10.60;6.30;;;24.20;93.40;;;;;;5041681;28;20036;-82
2022/07/24 01:17:09;;;;;;;8.05;5.28;;;24.20;93.60;;;;;;5033401;28;20017;-83
2022/07/24 01:19:35;;;;;;;10.90;5.43;;;24.10;93.60;;;;;;5038853;28;20073;-83
2022/07/24 01:22:00;;;;;;;11.82;5.65;;;24.10;93.80;;;;;;5021159;28;20036;-81
2022/07/24 01:24:26;;;;;;;8.05;5.72;;;24.10;94.10;;;;;;5049684;28;20006;-85
2022/07/24 01:26:52;;;;;;;8.15;5.13;;;24.00;94.30;;;;;;5049662;28;20156;-84
2022/07/24 01:29:18;;;;;;;8.05;6.43;;;24.10;94.60;;;;;;5029556;28;20463;-85
2022/07/24 01:31:44;;;;;;;9.13;5.90;;;24.00;95.10;;;;;;5047698;28;20030;-84
2022/07/24 01:34:10;;;;;;;11.13;6.20;;;24.00;95.20;;;;;;5044894;28;20103;-85
2022/07/24 01:36:36;;;;;;;11.88;6.40;;;24.00;95.50;;;;;;5026029;28;20465;-81
2022/07/24 01:39:02;;;;;;;9.60;5.60;;;23.90;95.80;;;;;;5042877;28;20025;-84
2022/07/24 01:41:28;;;;;;;12.75;6.55;;;23.90;96.10;;;;;;5040098;28;20022;-84
2022/07/24 01:43:54;;;;;;;14.80;6.97;;;23.90;96.60;;;;;;5040866;28;20532;-80
2022/07/24 01:46:19;;;;;;;11.52;7.20;;;23.80;96.90;;;;;;5041638;28;20581;-84
2022/07/24 01:48:45;;;;;;;10.00;7.00;;;23.80;97.50;;;;;;5042918;28;20022;-84
2022/07/24 01:51:11;;;;;;;9.32;7.20;;;23.70;98.00;;;;;;5041850;28;20126;-82
2022/07/24 01:53:37;;;;;;;12.07;7.47;;;23.70;98.50;;;;;;5038494;28;20026;-84
2022/07/24 01:56:03;;;;;;;11.02;7.18;;;23.60;98.90;;;;;;5039476;28;20028;-84
2022/07/24 01:58:29;;;;;;;11.30;7.55;;;23.60;99.30;;;;;;5042139;28;20029;-83
2022/07/24 02:00:55;;;;;;;15.38;7.57;;;23.50;99.80;;;;;;5054170;28;20025;-85
2022/07/24 02:03:21;;;;;;;11.60;8.45;;;23.50;99.90;;;;;;5033345;28;20053;-84
2022/07/24 02:05:47;;;;;;;11.20;8.20;;;23.40;99.90;;;;;;5036621;28;20034;-84
2022/07/24 02:08:13;;;;;;;14.77;8.73;;;23.40;99.90;;;;;;5042449;28;20033;-84
2022/07/24 02:10:39;;;;;;;11.25;8.35;;;23.40;99.90;;;;;;5042591;28;20124;-83
2022/07/24 02:13:06;;;;;;;11.68;8.63;;;23.30;99.90;;;;;;5023875;28;20029;-83
2022/07/24 02:15:32;;;;;;;12.80;9.05;;;23.30;99.90;;;;;;5043959;28;20034;-82
2022/07/24 02:17:59;;;;;;;15.95;9.30;;;23.30;99.90;;;;;;5023924;28;20028;-84
2022/07/24 02:20:26;;;;;;;11.93;8.60;;;23.30;99.90;;;;;;5025342;28;20119;-83
2022/07/24 02:22:52;;;;;;;12.88;8.60;;;23.20;99.90;;;;;;5044390;28;20022;-82
2022/07/24 02:25:18;;;;;;;16.67;9.30;;;23.20;99.90;;;;;;5025253;28;20509;-83
2022/07/24 02:27:44;;;;;;;13.77;9.18;;;23.20;99.90;;;;;;5042172;28;20029;-84
2022/07/24 02:30:13;;;;;;;15.80;9.13;;;23.10;99.90;;;;;;5043045;28;20036;-84
2022/07/24 02:32:39;;;;;;;12.73;8.80;;;23.10;99.90;;;;;;5043515;28;20032;-82
2022/07/24 02:35:05;;;;;;;11.55;8.77;;;23.10;99.90;;;;;;5023386;28;20033;-83
2022/07/24 02:37:31;;;;;;;12.93;8.90;;;23.10;99.90;;;;;;5042534;28;20108;-82
2022/07/24 02:39:57;;;;;;;13.98;9.07;;;23.10;99.90;;;;;;5060332;28;20017;-85
2022/07/24 02:42:23;;;;;;;11.23;9.05;;;23.00;99.90;;;;;;5049412;28;20026;-83
2022/07/24 02:44:49;;;;;;;12.82;8.98;;;23.00;99.90;;;;;;5024950;28;20045;-83
2022/07/24 02:47:14;;;;;;;12.05;9.20;;;22.90;99.90;;;;;;5030537;28;20032;-83
2022/07/24 02:49:40;;;;;;;12.13;8.65;;;22.90;99.90;;;;;;5059125;28;20036;-82
2022/07/24 02:52:06;;;;;;;11.38;9.05;;;22.90;99.90;;;;;;5059903;28;20036;-84
2022/07/24 02:54:32;;;;;;;11.30;9.13;;;22.80;99.90;;;;;;5060827;28;20056;-84
2022/07/24 02:56:57;;;;;;;13.48;9.90;;;22.80;99.90;;;;;;5060173;28;20017;-85
2022/07/24 02:59:23;;;;;;;13.27;9.50;;;22.80;99.90;;;;;;5059078;28;20038;-82
2022/07/24 03:01:49;;;;;;;15.27;9.63;;;22.80;99.90;;;;;;5059869;28;20024;-85
2022/07/24 03:04:15;;;;;;;12.93;10.15;;;22.80;99.90;;;;;;5044461;28;20033;-81
2022/07/24 03:06:40;;;;;;;14.60;10.27;;;22.70;99.90;;;;;;5027489;28;20029;-86
2022/07/24 03:09:06;;;;;;;12.25;9.90;;;22.70;99.90;;;;;;5045486;28;20385;-83
2022/07/24 03:11:32;;;;;;;14.07;9.90;;;22.70;99.90;;;;;;5036061;28;20022;-81
2022/07/24 03:13:58;;;;;;;15.75;10.20;;;22.70;99.90;;;;;;5050388;28;20033;-82
2022/07/24 03:16:23;;;;;;;13.05;10.05;;;22.60;99.90;;;;;;5040601;28;20041;-81
2022/07/24 03:18:49;;;;;;;17.05;10.50;;;22.60;99.90;;;;;;5041770;28;20021;-84
2022/07/24 03:21:17;;;;;;;17.30;10.57;;;22.60;99.90;;;;;;5038289;28;20042;-82
2022/07/24 03:23:43;;;;;;;14.30;10.93;;;22.50;99.90;;;;;;5048901;28;20137;-82
2022/07/24 03:26:09;;;;;;;14.30;9.68;;;22.50;99.90;;;;;;5048029;28;20052;-81
2022/07/24 03:28:35;;;;;;;14.50;10.45;;;22.40;99.90;;;;;;5053191;28;20105;-83
2022/07/24 03:31:01;;;;;;;13.73;10.25;;;22.40;99.90;;;;;;5035981;28;20013;-85
2022/07/24 03:33:28;;;;;;;15.00;9.98;;;22.40;99.90;;;;;;5051090;28;20021;-82
2022/07/24 03:35:54;;;;;;;15.88;9.77;;;22.30;99.90;;;;;;5063137;22;20037;-84
2022/07/24 03:38:21;;;;;;;17.80;10.75;;;22.30;99.90;;;;;;5052766;28;20120;-81
2022/07/24 03:40:47;;;;;;;17.88;10.05;;;22.30;99.90;;;;;;5053307;28;20085;-82
2022/07/24 03:43:13;;;;;;;16.60;10.07;;;22.30;99.90;;;;;;5030680;28;20033;-82
2022/07/24 03:45:39;;;;;;;14.13;10.52;;;22.30;99.90;;;;;;5049898;28;20030;-82
2022/07/24 03:48:05;;;;;;;13.13;10.27;;;22.30;99.90;;;;;;5023514;28;20030;-83
2022/07/24 03:50:31;;;;;;;12.93;10.55;;;22.30;99.90;;;;;;5040994;28;20444;-82
2022/07/24 03:52:56;;;;;;;13.80;10.25;;;22.30;99.90;;;;;;5041011;28;20033;-81
2022/07/24 03:55:22;;;;;;;14.52;10.65;;;22.30;99.90;;;;;;5039751;28;20459;-83
2022/07/24 03:57:48;;;;;;;13.63;10.27;;;22.20;99.90;;;;;;5039406;28;20137;-83
2022/07/24 04:00:14;;;;;;;13.52;10.65;;;22.20;99.90;;;;;;5021521;28;20026;-82
2022/07/24 04:02:40;;;;;;;12.77;10.18;;;22.10;99.90;;;;;;5022236;28;20064;-83
2022/07/24 04:05:08;;;;;;;13.50;10.40;;;22.10;99.90;;;;;;5039861;28;20519;-83
2022/07/24 04:07:38;;;;;;;13.70;10.18;;;22.10;99.90;;;;;;5051563;28;20053;-83
2022/07/24 04:10:06;;;;;;;16.85;10.50;;;22.10;99.90;;;;;;5023868;28;20052;-83
2022/07/24 04:12:32;;;;;;;16.15;10.48;;;22.10;99.90;;;;;;5040893;28;20477;-84
2022/07/24 04:14:58;;;;;;;16.95;10.63;;;22.20;99.90;;;;;;5022165;28;20481;-82
2022/07/24 04:17:24;;;;;;;16.48;9.63;;;22.20;99.90;;;;;;5047450;28;20090;-84
2022/07/24 04:19:50;;;;;;;12.38;10.13;;;22.30;99.90;;;;;;5046667;28;20017;-82
2022/07/24 04:22:16;;;;;;;14.25;9.98;;;22.30;99.90;;;;;;5029229;28;20037;-84
2022/07/24 04:24:42;;;;;;;12.45;9.80;;;22.50;99.90;;;;;;5040487;28;20029;-84
2022/07/24 04:27:08;;;;;;;12.10;9.35;;;22.60;99.90;;;;;;5044099;28;20081;-82
2022/07/24 04:29:34;;;;;;;14.77;10.02;;;22.70;99.90;;;;;;5045369;28;20040;-84
2022/07/24 04:32:00;;;;;;;15.32;9.27;;;22.80;99.90;;;;;;5039773;28;20116;-83
2022/07/24 04:34:26;;;;;;;13.32;9.98;;;22.80;99.90;;;;;;5021693;28;20057;-81
2022/07/24 04:36:52;;;;;;;14.75;9.07;;;22.80;99.90;;;;;;5039966;28;20030;-82
2022/07/24 04:39:17;;;;;;;14.95;9.65;;;22.80;99.90;;;;;;5039856;28;20024;-81
2022/07/24 04:41:44;;;;;;;17.40;9.43;;;22.90;99.90;;;;;;5022320;28;20076;-82
2022/07/24 04:44:10;;;;;;;12.80;9.27;;;23.00;99.90;;;;;;5039913;28;20040;-83
2022/07/24 04:46:36;;;;;;;14.45;9.68;;;23.00;99.90;;;;;;5023274;28;20097;-80
2022/07/24 04:49:01;;;;;;;12.13;9.45;;;23.10;99.90;;;;;;5043654;28;20038;-82
2022/07/24 04:51:27;;;;;;;19.30;9.43;;;23.20;99.90;;;;;;5040892;28;20037;-81
2022/07/24 04:53:53;;;;;;;11.80;9.70;;;23.30;99.90;;;;;;5040602;28;20077;-83
2022/07/24 04:56:20;;;;;;;10.95;8.77;;;23.30;99.90;;;;;;5041162;28;20034;-84
2022/07/24 04:58:46;;;;;;;9.80;8.70;;;23.40;99.90;;;;;;5051432;28;20032;-83
2022/07/24 05:01:13;;;;;;;12.32;8.52;;;23.60;99.90;;;;;;5053059;28;20045;-81
2022/07/24 05:03:39;;;;;;;10.85;8.63;;;23.70;99.90;;;;;;5053620;28;20013;-81
2022/07/24 05:06:05;;;;;;;10.43;8.05;;;23.90;99.90;;;;;;5056118;28;20040;-80
2022/07/24 05:08:31;;;;;;;9.68;7.45;;;24.00;99.90;;;;;;5055191;28;20029;-81
2022/07/24 05:10:56;;;;;;;8.95;7.68;;;24.00;99.90;;;;;;5028448;28;20044;-83
2022/07/24 05:13:22;;;;;;;10.05;7.03;;;24.10;99.90;;;;;;5029386;28;20024;-82
2022/07/24 05:15:48;;;;;;;11.30;7.80;;;24.10;99.90;;;;;;5040166;28;20025;-83
2022/07/24 05:18:14;;;;;;;11.88;7.47;;;24.10;99.90;;;;;;5043756;28;20094;-82
2022/07/24 05:20:40;;;;;;;9.80;7.47;;;24.10;99.90;;;;;;5040124;28;20051;-83
2022/07/24 05:23:06;;;;;;;8.30;6.22;;;24.20;99.90;;;;;;5027049;28;20025;-84
2022/07/24 05:25:32;;;;;;;8.77;6.72;;;24.20;99.60;;;;;;5041324;28;20033;-84
2022/07/24 05:27:57;;;;;;;8.13;6.80;;;24.20;99.50;;;;;;5039889;28;20022;-83
2022/07/24 05:30:23;;;;;;;10.00;7.18;;;24.10;99.30;;;;;;5022626;28;20033;-84
2022/07/24 05:32:49;;;;;;;10.70;7.28;;;24.00;99.60;;;;;;5040382;28;20073;-81
2022/07/24 05:35:15;;;;;;;9.45;6.30;;;24.00;99.50;;;;;;5040310;28;20401;-84
2022/07/24 05:37:41;;;;;;;11.05;6.88;;;24.00;99.60;;;;;;5023032;28;20030;-83
2022/07/24 05:40:07;;;;;;;10.75;6.78;;;24.00;99.40;;;;;;5041000;28;20044;-83
2022/07/24 05:42:33;;;;;;;12.35;6.88;;;24.20;99.30;;;;;;5047285;28;20056;-84
2022/07/24 05:44:59;;;;;;;9.88;7.22;;;24.30;99.20;;;;;;5046888;28;20033;-82
2022/07/24 05:47:24;;;;;;;10.35;7.03;;;24.60;99.10;;;;;;5046921;28;20036;-82
2022/07/24 05:49:50;;;;;;;11.35;7.50;;;24.60;98.90;;;;;;5045966;28;20060;-84
2022/07/24 05:52:16;;;;;;;10.93;6.88;;;24.50;98.90;;;;;;5045698;28;20041;-83
2022/07/24 05:54:42;;;;;;;10.23;7.50;;;24.40;99.30;;;;;;5045339;28;20075;-84
2022/07/24 05:57:08;;;;;;;11.18;7.07;;;24.30;99.40;;;;;;5045900;28;20022;-84
2022/07/24 05:59:34;;;;;;;10.30;7.43;;;24.40;99.70;;;;;;5059329;28;20025;-80
2022/07/24 06:02:03;;;;;;;10.02;6.97;;;24.40;99.70;;;;;;5045108;28;20029;-81
2022/07/24 06:04:30;;;;;;;10.80;7.30;;;24.40;99.60;;;;;;5049274;28;20053;-81
2022/07/24 06:06:55;;;;;;;8.40;7.13;;;24.50;99.70;;;;;;5027239;28;20029;-82
2022/07/24 06:09:21;;;;;;;9.77;7.38;;;24.50;99.50;;;;;;5047532;28;20112;-82
2022/07/24 06:11:47;;;;;;;10.63;7.40;;;24.60;99.40;;;;;;5047797;28;20053;-84
2022/07/24 06:14:13;;;;;;;10.80;7.43;;;24.60;98.90;;;;;;5060830;28;20025;-82
2022/07/24 06:16:38;;;;;;;13.38;8.23;;;24.70;98.40;;;;;;5061436;28;20061;-81
2022/07/24 06:19:04;;;;;;;10.55;8.15;;;24.60;98.50;;;;;;5032459;28;20037;-82
2022/07/24 06:21:30;;;;;;;7.68;6.88;;;24.60;98.10;;;;;;5048483;28;20021;-82
2022/07/24 06:23:56;;;;;;;9.20;7.38;;;24.60;98.20;;;;;;5046326;28;20093;-83
2022/07/24 06:26:21;;;;;;;11.50;6.70;;;24.70;97.90;;;;;;5048758;28;20505;-84
2022/07/24 06:28:47;;;;;;;8.07;6.53;;;24.80;97.70;;;;;;5049789;28;20045;-83
2022/07/24 06:31:14;;;;;;;11.13;7.47;;;24.80;97.50;;;;;;5029842;28;20029;-83
2022/07/24 06:33:40;;;;;;;13.05;6.60;;;24.90;97.10;;;;;;5049935;28;20029;-83
2022/07/24 06:36:06;;;;;;;12.13;7.43;;;24.90;97.40;;;;;;5050289;28;20025;-84
2022/07/24 06:38:32;;;;;;;9.32;6.82;;;25.00;97.10;;;;;;5055665;28;20048;-82
2022/07/24 06:40:58;;;;;;;10.55;7.35;;;25.10;96.70;;;;;;5047330;28;20021;-84
2022/07/24 06:43:24;;;;;;;8.90;7.25;;;25.10;96.10;;;;;;5028022;28;20045;-85
2022/07/24 06:45:50;;;;;;;10.60;6.78;;;25.00;95.60;;;;;;5047401;28;20122;-84
2022/07/24 06:48:16;;;;;;;8.50;6.60;;;25.10;95.80;;;;;;5048022;28;20048;-86
2022/07/24 06:50:41;;;;;;;8.30;6.32;;;25.10;96.00;;;;;;5058321;28;20116;-84
2022/07/24 06:53:07;;;;;;;9.98;6.07;;;25.20;95.80;;;;;;5040202;28;20033;-83
2022/07/24 06:55:33;;;;;;;9.23;6.65;;;25.30;95.00;;;;;;5060538;28;20060;-81
2022/07/24 06:58:00;;;;;;;10.52;6.43;;;25.30;94.40;;;;;;5060235;28;20101;-82
2022/07/24 07:00:26;;;;;;;7.57;5.90;;;25.40;94.30;;;;;;5059990;28;20214;-82
2022/07/24 07:02:52;;;;;;;7.32;6.55;;;25.50;93.50;;;;;;5060095;28;20049;-82
2022/07/24 07:05:18;;;;;;;6.55;5.88;;;25.60;93.60;;;;;;5060352;28;20018;-80
2022/07/24 07:07:44;;;;;;;10.90;5.93;;;25.70;92.90;;;;;;5060169;28;20081;-81
2022/07/24 07:10:10;;;;;;;7.60;6.15;;;25.80;92.80;;;;;;5060119;28;20022;-81
2022/07/24 07:12:36;;;;;;;7.78;5.57;;;26.00;92.90;;;;;;5059613;28;20013;-83
2022/07/24 07:15:03;;;;;;;8.35;6.15;;;26.20;92.20;;;;;;5041573;28;20026;-82
2022/07/24 07:17:29;;;;;;;9.30;5.57;;;26.20;92.10;;;;;;5058815;28;20013;-83
2022/07/24 07:19:55;;;;;;;7.50;5.65;;;26.20;92.00;;;;;;5041781;28;20092;-81
2022/07/24 07:22:21;;;;;;;8.48;5.70;;;26.20;91.80;;;;;;5059374;28;20041;-82
2022/07/24 07:24:46;;;;;;;12.55;5.95;;;26.30;91.70;;;;;;5059338;28;20030;-81
2022/07/24 07:27:12;;;;;;;6.65;5.43;;;26.30;91.00;;;;;;5058199;28;20026;-82
2022/07/24 07:29:38;;;;;;;8.40;5.75;;;26.30;90.50;;;;;;5041251;28;20034;-83
2022/07/24 07:32:04;;;;;;;7.15;5.40;;;26.30;90.10;;;;;;5040613;28;20014;-82
2022/07/24 07:34:30;;;;;;;6.13;4.82;;;26.20;90.10;;;;;;5059144;28;20021;-83
2022/07/24 07:36:56;;;;;;;7.25;4.38;;;26.10;87.90;;;;;;5058411;28;20044;-82
2022/07/24 07:39:22;;;;;;;9.40;4.80;;;26.00;85.00;;;;;;5056796;28;20056;-82
2022/07/24 07:41:48;;;;;;;7.10;4.95;;;26.10;86.10;;;;;;5041150;28;20052;-80
2022/07/24 07:44:13;;;;;;;7.53;4.70;;;26.10;88.10;;;;;;5025304;28;20486;-80
2022/07/24 07:46:39;;;;;;;9.85;5.10;;;26.10;88.00;;;;;;5041470;28;20018;-83
2022/07/24 07:49:05;;;;;;;7.20;4.97;;;26.00;88.20;;;;;;5057828;28;20048;-83
2022/07/24 07:51:31;;;;;;;7.72;5.30;;;26.00;89.20;;;;;;5058379;28;20025;-83
2022/07/24 07:53:56;;;;;;;5.93;4.20;;;26.00;87.10;;;;;;5046510;28;20036;-82
2022/07/24 07:56:22;;;;;;;7.10;4.75;;;26.00;85.10;;;;;;5030083;28;20101;-83
2022/07/24 07:58:48;;;;;;;7.90;4.60;;;25.90;84.00;;;;;;5051617;28;20021;-84
2022/07/24 08:01:14;;;;;;;8.52;4.72;;;25.90;82.70;;;;;;5041599;28;20036;-82
2022/07/24 08:03:40;;;;;;;5.10;4.20;;;25.90;82.70;;;;;;5041872;28;20022;-80
2022/07/24 08:06:06;;;;;;;8.38;4.75;;;25.90;83.80;;;;;;5058844;28;20060;-83
2022/07/24 08:08:32;;;;;;;5.88;4.30;;;26.10;83.40;;;;;;5058380;28;20040;-81
2022/07/24 08:10:57;;;;;;;8.13;4.65;;;26.30;84.20;;;;;;5058608;28;20025;-82
2022/07/24 08:13:23;;;;;;;7.32;4.90;;;26.20;83.10;;;;;;5023719;28;20038;-85
2022/07/24 08:15:49;;;;;;;4.93;4.43;;;26.30;81.90;;;;;;5051290;28;20080;-82
2022/07/24 08:18:15;;;;;;;5.75;4.70;;;26.50;80.50;;;;;;5043279;28;20050;-83
2022/07/24 08:20:43;;;;;;;5.40;4.07;;;26.60;80.20;;;;;;5043190;28;20465;-82
2022/07/24 08:23:09;;;;;;;6.78;4.72;;;26.70;79.30;;;;;;5023817;28;20424;-84
2022/07/24 08:25:35;;;;;;;7.82;3.83;;;26.60;78.80;;;;;;5042696;28;20030;-84
2022/07/24 08:28:01;;;;;;;6.63;4.15;;;26.50;77.80;;;;;;5041622;28;20400;-84
2022/07/24 08:30:27;;;;;;;4.70;3.92;;;26.40;78.60;;;;;;5040205;28;20033;-83
2022/07/24 08:32:53;;;;;;;5.10;3.83;;;26.50;78.10;;;;;;5040231;28;20481;-83
2022/07/24 08:35:20;;;;;;;7.20;4.00;;;26.60;78.30;;;;;;5022844;28;20041;-82
2022/07/24 08:37:46;;;;;;;6.25;4.55;;;26.80;77.70;;;;;;5023016;28;20021;-84
2022/07/24 08:40:13;;;;;;;7.30;4.60;;;26.90;78.00;;;;;;5040083;28;20032;-83
2022/07/24 08:42:39;;;;;;;6.72;4.07;;;26.90;76.90;;;;;;5040775;28;20022;-83
2022/07/24 08:45:06;;;;;;;7.00;4.30;;;26.90;76.60;;;;;;5040361;28;20030;-84
2022/07/24 08:47:32;;;;;;;5.80;3.97;;;26.90;75.30;;;;;;5039202;28;20021;-84
2022/07/24 08:49:59;;;;;;;5.18;3.80;;;27.00;75.80;;;;;;5040851;28;20404;-83
2022/07/24 08:52:25;;;;;;;5.88;3.78;;;27.00;74.60;;;;;;5050041;28;20029;-84
2022/07/24 08:54:53;;;;;;;4.72;3.40;;;27.00;74.10;;;;;;5040691;28;20120;-83
2022/07/24 08:57:19;;;;;;;4.80;3.53;;;27.10;73.70;;;;;;5041776;28;20544;-82
2022/07/24 08:59:45;;;;;;;4.03;3.63;;;27.10;73.10;;;;;;5039671;28;20064;-85
2022/07/24 09:02:11;;;;;;;6.32;3.67;;;27.10;72.50;;;;;;5040709;28;20021;-85
2022/07/24 09:04:49;;;;;;;4.80;3.50;;;27.20;72.60;;;;;;5032783;28;20091;-84
2022/07/24 09:07:23;;;;;;;6.22;3.70;;;27.30;72.40;;;;;;5050503;28;20034;-82
2022/07/24 09:10:09;;;;;;;4.97;3.13;;;27.40;72.30;;;;;;5049487;28;20378;-84
2022/07/24 09:12:41;;;;;;;4.13;3.58;;;27.50;71.80;;;;;;5048252;28;20033;-84
2022/07/24 09:15:15;;;;;;;4.75;3.30;;;27.50;70.90;;;;;;5043361;28;20175;-83
2022/07/24 09:17:51;;;;;;;3.22;2.92;;;27.60;69.70;;;;;;5026132;28;20029;-83
2022/07/24 09:20:17;;;;;;;5.35;3.30;;;27.70;70.00;;;;;;5041779;28;20063;-83
2022/07/24 09:22:43;;;;;;;4.28;3.35;;;27.70;70.00;;;;;;5040396;28;20041;-83
2022/07/24 09:25:23;;;;;;;5.15;3.33;;;27.80;70.40;;;;;;5039927;28;20064;-83
2022/07/24 09:27:54;;;;;;;4.40;3.20;;;27.80;69.10;;;;;;5039440;28;20037;-85
2022/07/24 09:30:40;;;;;;;4.95;3.53;;;27.80;70.40;;;;;;5044223;28;20025;-83
2022/07/24 09:33:13;;;;;;;6.18;3.30;;;27.90;70.90;;;;;;5047345;28;20041;-82
2022/07/24 09:35:45;;;;;;;4.80;3.22;;;27.90;69.60;;;;;;5022581;28;20033;-83
2022/07/24 09:38:22;;;;;;;6.25;3.67;;;28.10;68.70;;;;;;5046090;22;20056;-88
2022/07/24 09:40:55;;;;;;;5.32;3.45;;;28.20;69.60;;;;;;5041866;28;20689;-88
2022/07/24 09:43:29;;;;;;;5.93;3.77;;;28.20;69.50;;;;;;5042743;28;20063;-87
2022/07/24 09:46:09;;;;;;;4.65;3.75;;;28.40;69.50;;;;;;5023830;28;20076;-88
2022/07/24 09:48:38;;;;;;;4.75;3.67;;;28.70;69.60;;;;;;5021761;28;20421;-88
2022/07/24 09:51:14;;;;;;;3.83;3.38;;;29.30;68.50;;;;;;5006870;28;20044;-88
2022/07/24 09:53:41;;;;;;;4.78;3.10;;;29.80;67.50;;;;;;5030257;28;20045;-87
2022/07/24 09:56:16;;;;;;;4.97;3.33;;;30.50;66.20;;;;;;5014897;28;20157;-87
2022/07/24 09:58:45;;;;;;;3.90;3.40;;;31.40;64.70;;;;;;5015516;28;20034;-88
2022/07/24 10:01:11;;;;;;;8.80;3.33;;;32.10;63.00;;;;;;5012216;28;20029;-86
2022/07/24 10:03:39;;;;;;;3.50;3.13;;;32.50;62.10;;;;;;5028350;28;20037;-87
2022/07/24 10:06:08;;;;;;;3.85;3.30;;;33.20;60.90;;;;;;5007548;28;20022;-85
2022/07/24 10:08:36;;;;;;;8.52;3.05;;;33.90;59.50;;;;;;5006825;28;20037;-88
2022/07/24 10:11:02;;;;;;;7.95;3.17;;;35.00;57.80;;;;;;5009456;28;20030;-84
2022/07/24 10:13:28;;;;;;;3.72;2.97;;;35.20;56.30;;;;;;5027207;28;20022;-88
2022/07/24 10:16:00;;;;;;;4.32;3.20;;;35.50;55.20;;;;;;5029402;28;20026;-87
2022/07/24 10:18:41;;;;;;;8.18;2.90;;;36.30;54.20;;;;;;5010094;28;20044;-88
2022/07/24 10:21:11;;;;;;;3.28;2.60;;;38.00;52.20;;;;;;5024613;28;20102;-88
2022/07/24 10:23:57;;;;;;;3.80;2.90;;;39.10;49.70;;;;;;5027721;28;20022;-88
2022/07/24 10:26:35;;;;;;;3.13;2.80;;;38.70;49.30;;;;;;5030545;28;20037;-89
2022/07/24 10:29:16;;;;;;;4.32;2.80;;;39.70;48.10;;;;;;5018135;28;20041;-87
2022/07/24 10:31:46;;;;;;;3.45;2.50;;;40.40;47.10;;;;;;5036429;28;20040;-89
2022/07/24 10:34:24;;;;;;;4.03;2.83;;;40.60;46.40;;;;;;5036352;28;20038;-86
2022/07/24 10:37:28;;;;;;;4.03;2.95;;;40.90;45.90;;;;;;5038341;28;20033;-87
2022/07/24 10:40:12;;;;;;;9.45;2.88;;;41.60;45.10;;;;;;5011243;28;20053;-88
2022/07/24 10:43:10;;;;;;;5.00;2.67;;;41.60;44.50;;;;;;5040461;28;20030;-88
2022/07/24 10:45:48;;;;;;;5.88;2.58;;;41.60;44.40;;;;;;5006976;28;20076;-88
2022/07/24 10:48:20;;;;;;;3.33;2.47;;;42.10;44.20;;;;;;5039368;28;20091;-85
2022/07/24 10:51:02;;;;;;;3.08;2.60;;;42.20;43.40;;;;;;5039985;28;20046;-88
2022/07/24 10:53:37;;;;;;;4.75;2.75;;;42.30;43.00;;;;;;5020361;28;20163;-88
2022/07/24 10:56:20;;;;;;;3.97;2.78;;;42.30;42.40;;;;;;5037832;28;20030;-88
2022/07/24 10:59:01;;;;;;;4.05;2.60;;;42.10;42.80;;;;;;5033106;28;20026;-87
2022/07/24 11:01:27;;;;;;;6.45;2.70;;;42.70;42.50;;;;;;5038062;28;20037;-88
2022/07/24 11:03:53;;;;;;;3.70;2.53;;;43.50;42.00;;;;;;5040313;28;20021;-87
2022/07/24 11:06:41;;;;;;;3.58;2.53;;;44.20;41.70;;;;;;5039790;28;20045;-86
2022/07/24 11:09:07;;;;;;;3.20;2.60;;;44.40;41.50;;;;;;5007100;28;20030;-88
2022/07/24 11:11:39;;;;;;;4.32;2.60;;;45.10;41.20;;;;;;5039818;28;20070;-87
2022/07/24 11:14:05;;;;;;;4.47;2.67;;;45.60;40.60;;;;;;5022868;28;20042;-88
2022/07/24 11:16:32;;;;;;;4.05;2.40;;;44.50;40.50;;;;;;5022531;28;20018;-88
2022/07/24 11:19:01;;;;;;;4.05;2.88;;;44.80;40.40;;;;;;5040193;28;20026;-86
2022/07/24 11:21:37;;;;;;;4.25;2.88;;;44.20;40.10;;;;;;5038589;28;20014;-87
2022/07/24 11:26:59;;;;;;;2.85;2.65;;;44.80;39.60;;;;;;5036935;28;20082;-86
2022/07/24 11:29:27;;;;;;;;;;;43.80;39.90;;;;;;5019763;28;20037;-87
2022/07/24 11:32:08;;;;;;;3.63;2.67;;;43.70;39.90;;;;;;5020804;28;20282;-87
2022/07/24 11:34:35;;;;;;;3.33;2.60;;;44.40;39.70;;;;;;5034836;28;20056;-88
2022/07/24 11:37:02;;;;;;;3.67;2.90;;;44.60;39.80;;;;;;5016344;28;20026;-88
2022/07/24 11:39:35;;;;;;;4.57;3.05;;;45.10;39.60;;;;;;5018987;28;20018;-87
2022/07/24 11:42:02;;;;;;;3.42;2.53;;;45.70;38.90;;;;;;5018089;28;20029;-87
2022/07/24 11:44:33;;;;;;;2.75;2.50;;;45.80;38.90;;;;;;4991849;28;20030;-88
2022/07/24 11:47:13;;;;;;;2.97;2.50;;;46.00;38.60;;;;;;5005492;28;20172;-87
2022/07/24 11:50:00;;;;;;;4.13;2.80;;;45.90;38.80;;;;;;4987698;28;20117;-87
2022/07/24 11:52:29;;;;;;;2.83;2.50;;;45.90;38.70;;;;;;5005233;28;20029;-89
2022/07/24 11:54:57;;;;;;;2.85;2.65;;;45.70;38.70;;;;;;5024608;28;20026;-88
2022/07/24 11:57:25;;;;;;;3.05;2.47;;;45.70;38.60;;;;;;5025849;28;20057;-86
2022/07/24 11:59:57;;;;;;;5.53;2.95;;;46.00;38.60;;;;;;5025795;28;20037;-88
2022/07/24 12:02:23;;;;;;;2.88;2.67;;;45.70;38.90;;;;;;5009774;28;20101;-88
2022/07/24 12:04:50;;;;;;;3.53;2.88;;;44.90;38.80;;;;;;5028383;28;20045;-87
2022/07/24 12:07:24;;;;;;;3.53;2.72;;;44.80;39.10;;;;;;5011734;28;20030;-87
2022/07/24 12:09:56;;;;;;;4.00;2.75;;;44.80;38.80;;;;;;5013391;28;20033;-88
2022/07/24 12:12:31;;;;;;;3.63;2.83;;;44.80;39.00;;;;;;5013862;28;20053;-88
2022/07/24 12:15:07;;;;;;;4.03;2.80;;;45.20;38.80;;;;;;5017051;28;20188;-88
2022/07/24 12:17:35;;;;;;;3.75;3.20;;;45.30;39.00;;;;;;5015215;28;20053;-87
2022/07/24 12:20:06;;;;;;;5.57;3.58;;;46.00;38.60;;;;;;5017121;28;20286;-87
2022/07/24 12:22:32;;;;;;;9.48;2.83;;;46.00;38.40;;;;;;5036214;28;20031;-88
2022/07/24 12:24:59;;;;;;;4.10;2.83;;;46.20;38.10;;;;;;5035552;28;20045;-86
2022/07/24 12:27:39;;;;;;;3.17;2.88;;;45.50;38.40;;;;;;5019428;28;20054;-86
2022/07/24 12:30:20;;;;;;;4.13;2.95;;;45.80;38.40;;;;;;5019447;28;20087;-86
2022/07/24 12:32:55;;;;;;;6.25;3.03;;;46.70;38.20;;;;;;5015984;28;20034;-87
2022/07/24 12:35:21;;;;;;;5.13;2.90;;;46.80;38.10;;;;;;5003164;28;20022;-87
2022/07/24 12:37:47;;;;;;;3.03;2.83;;;46.50;38.30;;;;;;5019030;28;20030;-87
2022/07/24 12:40:34;;;;;;;3.42;2.80;;;45.80;38.50;;;;;;5000086;28;20034;-87
2022/07/24 12:43:12;;;;;;;3.42;3.08;;;46.10;38.40;;;;;;5035023;28;20061;-87
2022/07/24 12:45:39;;;;;;;3.30;2.95;;;44.50;38.80;;;;;;5018722;28;20104;-86
2022/07/24 12:48:22;;;;;;;5.53;3.25;;;43.40;39.40;;;;;;5001152;28;20083;-87
2022/07/24 12:51:14;;;;;;;3.37;3.07;;;43.50;39.60;;;;;;5014397;28;20038;-87